Clearlake, Washington
Current Conditions -  °F | °C
As of 10:35 AM on Wednesday 26 Nov 2014 (Local Time) from KBVS Reporting Station
Overcast Overcast  
Wind Chill: 55°   Ceiling: 1000
Heat Index: 55°   Visibility: 6mi
Dew Point: 54°   Wind: 8mph
Humidity: 94%   Direction: 150°SSE
Pressure: 30.08"   Gusts: NA
Location:  48.46°N, 122.23°W
Report Text: KBVS 261835Z AUTO 15007KT 6SM OVC010 13/12 A3008 RMK A01 P000
Loading
Personal Weather Stations






























Interactive Weather Map New forecast layout! Learn more

10-Day Weather Forecast

Advertisements
Track Severe Weather on mobile